Data for 04/29/2014

Time Sea-Level Adjusted Pressure Absolute Pressure Temperature Relative Humidity Dew Point   
(mb) (inHg) (mb) (inHg) (C) (F) (%) (C) (F)
00:05 1028 30.36 857 25.31 2.4 36.3 56 -5.4 22.2
00:10 1028 30.36 857 25.31 2.4 36.2 56 -5.5 22.1
00:15 1028 30.36 857 25.31 2.3 36.2 56 -5.5 22.2
00:20 1028 30.36 857 25.31 2.3 36.2 56 -5.5 22.1
00:25 1028 30.36 857 25.31 2.4 36.2 57 -5.3 22.4
00:30 1028 30.36 857 25.31 2.3 36.1 57 -5.4 22.3
00:35 1028 30.36 857 25.31 2.2 36 58 -5.2 22.6
00:40 1028 30.36 857 25.31 2.2 36 58 -5.3 22.5
00:45 1028 30.36 858 25.34 2.2 35.9 57 -5.4 22.3
00:50 1028 30.36 858 25.34 2.1 35.8 58 -5.3 22.4
00:55 1028 30.36 858 25.34 2 35.6 59 -5.2 22.6
01:00 1028 30.36 858 25.34 1.9 35.4 59 -5.2 22.6
01:05 1029 30.39 858 25.34 1.8 35.2 60 -5.1 22.8
01:10 1029 30.39 858 25.34 1.7 35.1 60 -5.3 22.5
01:15 1029 30.39 858 25.34 1.7 35 61 -5.1 22.9
01:20 1029 30.39 858 25.34 1.6 34.9 61 -5.1 22.8
01:25 1029 30.39 858 25.34 1.5 34.6 61 -5.2 22.7
01:30 1029 30.39 858 25.34 1.3 34.4 62 -5.2 22.6
01:35 1029 30.39 858 25.34 1.3 34.3 61 -5.4 22.2
01:40 1029 30.39 858 25.34 1.2 34.2 60 -5.6 21.9
01:45 1029 30.39 858 25.34 1.1 34 61 -5.5 22
01:50 1029 30.39 858 25.34 1 33.9 62 -5.5 22.1
01:55 1029 30.39 858 25.34 0.9 33.7 62 -5.6 22
02:00 1029 30.39 858 25.34 0.9 33.6 62 -5.5 22
02:05 1029 30.39 858 25.34 0.8 33.5 62 -5.5 22.1
02:10 1029 30.39 858 25.34 0.8 33.4 63 -5.4 22.2
02:15 1029 30.39 858 25.34 0.7 33.2 64 -5.5 22.2
02:20 1029 30.39 858 25.34 0.5 32.8 65 -5.4 22.3
02:25 1029 30.39 858 25.34 0.2 32.4 65 -5.5 22
02:30 1029 30.39 858 25.34 0.2 32.3 64 -5.8 21.6
02:35 1029 30.39 858 25.34 0.3 32.5 64 -5.7 21.7
02:40 1029 30.39 858 25.34 0.3 32.5 63 -6 21.2
02:45 1029 30.39 858 25.34 0.3 32.5 62 -6.1 21
02:50 1029 30.39 859 25.37 0.3 32.5 62 -6.2 20.9
02:55 1029 30.39 859 25.37 0.2 32.4 62 -6.3 20.7
03:00 1029 30.39 859 25.37 0.1 32.2 62 -6.3 20.6
03:05 1029 30.39 859 25.37 0.1 32.2 61 -6.5 20.4
03:10 1030 30.42 859 25.37 0.1 32.2 62 -6.3 20.6
03:15 1030 30.42 859 25.37 0.2 32.3 61 -6.4 20.5
03:20 1030 30.42 859 25.37 0.2 32.4 61 -6.3 20.6
03:25 1030 30.42 859 25.37 0.2 32.4 62 -6.3 20.6
03:30 1030 30.42 859 25.37 0.2 32.3 61 -6.4 20.5
03:35 1030 30.42 859 25.37 0.1 32.3 62 -6.2 20.8
03:40 1030 30.42 859 25.37 0.1 32.1 62 -6.4 20.6
03:45 1030 30.42 859 25.37 -0.1 31.8 63 -6.2 20.8
03:50 1030 30.42 859 25.37 -0.3 31.5 64 -6.2 20.8
03:55 1030 30.42 859 25.37 -0.3 31.4 64 -6.3 20.6
04:00 1030 30.42 859 25.37 -0.3 31.4 64 -6.3 20.6
04:05 1030 30.42 859 25.37 -0.2 31.6 63 -6.4 20.4
04:10 1030 30.42 859 25.37 -0.2 31.6 63 -6.5 20.3
04:15 1030 30.42 859 25.37 -0.2 31.7 62 -6.6 20.1
04:20 1030 30.42 859 25.37 -0.1 31.8 62 -6.6 20.2
04:25 1030 30.42 859 25.37 -0.1 31.8 62 -6.5 20.3
04:30 1030 30.42 859 25.37 -0.1 31.8 62 -6.4 20.4
04:35 1030 30.42 860 25.4 -0.2 31.7 62 -6.5 20.2
04:40 1030 30.42 860 25.4 -0.2 31.7 64 -6.3 20.7
04:45 1030 30.42 860 25.4 -0.3 31.5 65 -6 21.1
04:50 1031 30.45 860 25.4 -0.4 31.3 63 -6.5 20.3
04:55 1031 30.45 860 25.4 -0.3 31.4 64 -6.4 20.5
05:00 1031 30.45 860 25.4 -0.5 31.2 66 -6.1 21
05:05 1030 30.42 860 25.4 -0.6 30.8 68 -5.8 21.5
05:10 1030 30.42 860 25.4 -0.7 30.8 65 -6.4 20.5
05:15 1030 30.42 860 25.4 -0.4 31.4 64 -6.4 20.4
05:20 1030 30.42 860 25.4 -0.3 31.5 63 -6.5 20.4
05:25 1031 30.45 860 25.4 -0.2 31.6 63 -6.5 20.3
05:30 1031 30.45 860 25.4 -0.2 31.7 63 -6.4 20.4
05:35 1031 30.45 860 25.4 -0.2 31.6 62 -6.5 20.3
05:40 1031 30.45 860 25.4 -0.3 31.6 63 -6.5 20.2
05:45 1031 30.45 860 25.4 -0.3 31.4 63 -6.5 20.4
05:50 1031 30.45 860 25.4 -0.5 31.1 68 -5.8 21.6
05:55 1031 30.45 860 25.4 -1.1 30 69 -6.1 21
06:00 1031 30.45 861 25.43 -1.2 29.8 68 -6.4 20.4
06:05 1031 30.45 861 25.43 -1 30.1 67 -6.4 20.4
06:10 1032 30.47 861 25.43 -0.7 30.7 65 -6.5 20.3
06:15 1032 30.47 861 25.43 -0.4 31.2 63 -6.6 20
06:20 1032 30.47 861 25.43 -0.3 31.5 66 -5.9 21.4
06:25 1032 30.47 861 25.43 -0.6 31 67 -5.9 21.4
06:30 1032 30.47 861 25.43 -0.9 30.4 69 -5.9 21.3
06:35 1032 30.47 861 25.43 -0.8 30.5 68 -5.9 21.3
06:40 1032 30.47 861 25.43 -0.6 30.9 66 -6.1 21
06:45 1032 30.47 861 25.43 -0.3 31.5 65 -6.1 21
06:50 1032 30.47 861 25.43 0.1 32.2 64 -5.9 21.3
06:55 1032 30.47 861 25.43 0.3 32.5 64 -5.7 21.7
07:00 1032 30.47 861 25.43 0.4 32.7 63 -5.9 21.4
07:05 1032 30.47 861 25.43 0.6 33.2 61 -6 21.2
07:10 1032 30.47 861 25.43 0.8 33.4 60 -6.2 20.9
07:15 1032 30.47 861 25.43 0.9 33.6 61 -5.7 21.7
07:20 1032 30.47 861 25.43 1 33.7 60 -5.9 21.3
07:25 1032 30.47 861 25.43 1 33.8 60 -5.8 21.5
07:30 1032 30.47 861 25.43 1.3 34.4 56 -6.4 20.4
07:35 1032 30.47 861 25.43 1.6 34.8 55 -6.4 20.4
07:40 1032 30.47 862 25.45 1.7 35 56 -6.2 20.8
07:45 1033 30.5 862 25.45 2.3 36.1 52 -6.6 20.2
07:50 1033 30.5 862 25.45 2.9 37.2 49 -6.7 19.9
07:55 1033 30.5 862 25.45 2.9 37.3 51 -6.3 20.6
08:00 1033 30.5 862 25.45 2.7 36.8 50 -6.7 20
08:05 1033 30.5 862 25.45 2.3 36.1 51 -6.9 19.6
08:10 1033 30.5 862 25.45 2.6 36.6 52 -6.4 20.5
08:15 1033 30.5 862 25.45 2.5 36.6 52 -6.4 20.5
08:20 1033 30.5 862 25.45 2.4 36.3 53 -6.2 20.9
08:25 1033 30.5 862 25.45 2.3 36.2 54 -6 21.1
08:30 1033 30.5 862 25.45 2.1 35.8 54 -6.3 20.7
08:35 1033 30.5 862 25.45 2.3 36.1 54 -6.1 21
08:40 1033 30.5 862 25.45 2.5 36.5 52 -6.3 20.7
08:45 1033 30.5 862 25.45 2.9 37.3 52 -6 21.2
08:50 1033 30.5 862 25.45 3.6 38.5 51 -5.5 22.1
08:55 1033 30.5 862 25.45 3.7 38.6 50 -5.7 21.8
09:00 1033 30.5 862 25.45 3.7 38.7 48 -6.2 20.9
09:05 1033 30.5 862 25.45 4 39.2 50 -5.5 22.1
09:10 1033 30.5 862 25.45 3.7 38.7 50 -5.7 21.7
09:15 1033 30.5 862 25.45 3.6 38.6 49 -6.1 21
09:20 1033 30.5 862 25.45 3.9 39.1 49 -5.9 21.3
09:25 1033 30.5 862 25.45 3.7 38.6 51 -5.5 22.2
09:30 1033 30.5 862 25.45 3.7 38.6 48 -6.4 20.6
09:35 1033 30.5 862 25.45 3.3 38 50 -6.1 21
09:40 1033 30.5 862 25.45 3.2 37.8 51 -5.9 21.3
09:45 1033 30.5 862 25.45 3.3 37.9 50 -6.1 21
09:50 1033 30.5 862 25.45 3.7 38.6 50 -5.9 21.5
09:55 1033 30.5 862 25.45 4.1 39.3 49 -5.6 21.9
10:00 1033 30.5 862 25.45 4 39.2 50 -5.4 22.2
10:05 1033 30.5 862 25.45 4.3 39.8 48 -5.7 21.8
10:10 1033 30.5 863 25.48 4.5 40.1 49 -5.2 22.6
10:15 1033 30.5 863 25.48 4.7 40.5 49 -5.1 22.9
10:20 1033 30.5 863 25.48 4.8 40.6 48 -5.3 22.5
10:25 1033 30.5 863 25.48 5 41.1 48 -5.1 22.8
10:30 1033 30.5 863 25.48 4.8 40.7 48 -5.3 22.4
10:35 1033 30.5 863 25.48 4.7 40.5 48 -5.4 22.3
10:40 1033 30.5 863 25.48 5.1 41.2 45 -6 21.3
10:45 1033 30.5 863 25.48 5.3 41.6 46 -5.4 22.3
10:50 1033 30.5 863 25.48 4.6 40.3 47 -5.9 21.4
10:55 1033 30.5 863 25.48 5 40.9 43 -6.7 20
11:00 1033 30.5 863 25.48 5.6 42.1 41 -6.5 20.3
11:05 1033 30.5 862 25.45 5.7 42.2 43 -5.8 21.5
11:10 1033 30.5 862 25.45 6.1 43 41 -6.1 21.1
11:15 1033 30.5 862 25.45 7 44.6 39 -6 21.2
11:20 1033 30.5 863 25.48 7 44.7 39 -5.9 21.4
11:25 1033 30.5 863 25.48 6.2 43.1 41 -6 21.3
11:30 1033 30.5 863 25.48 5.3 41.5 46 -5.3 22.4
11:35 1033 30.5 862 25.45 5.7 42.3 43 -5.7 21.7
11:40 1033 30.5 862 25.45 6 42.8 45 -5 23
11:45 1033 30.5 862 25.45 5.8 42.5 43 -5.8 21.5
11:50 1033 30.5 862 25.45 6.1 42.9 42 -5.7 21.7
11:55 1033 30.5 862 25.45 6.6 43.8 44 -4.7 23.5
12:00 1033 30.5 862 25.45 6.4 43.6 44 -5 23.1
12:05 1033 30.5 862 25.45 6.9 44.5 43 -4.8 23.4
12:10 1033 30.5 862 25.45 7.4 45.3 42 -4.7 23.5
12:15 1033 30.5 862 25.45 7.6 45.6 39 -5.5 22
12:20 1033 30.5 862 25.45 7.4 45.2 44 -4.2 24.5
12:25 1033 30.5 862 25.45 7.3 45.2 42 -4.6 23.7
12:30 1033 30.5 862 25.45 7.8 46 40 -5.1 22.8
12:35 1033 30.5 862 25.45 6.9 44.4 45 -4.1 24.7
12:40 1033 30.5 862 25.45 8 46.5 40 -4.8 23.3
12:45 1033 30.5 862 25.45 8.7 47.6 37 -5.3 22.4
12:50 1033 30.5 862 25.45 8.8 47.8 42 -3.4 25.9
12:55 1033 30.5 862 25.45 8.7 47.7 39 -4.6 23.7
13:00 1033 30.5 862 25.45 8.3 47 40 -4.5 23.9
13:05 1033 30.5 862 25.45 7.3 45.1 43 -4.6 23.7
13:10 1033 30.5 862 25.45 7 44.6 42 -5 23.1
13:15 1033 30.5 862 25.45 7.4 45.3 43 -4.5 23.9
13:20 1033 30.5 862 25.45 8.1 46.5 38 -5.3 22.4
13:25 1033 30.5 862 25.45 9.3 48.8 35 -5.4 22.3
13:30 1033 30.5 862 25.45 9.4 49 37 -4.5 24
13:35 1033 30.5 862 25.45 8.7 47.7 41 -3.7 25.3
13:40 1033 30.5 862 25.45 8.9 47.9 37 -5.1 22.8
13:45 1033 30.5 862 25.45 8.7 47.6 38 -4.9 23.1
13:50 1033 30.5 862 25.45 8.8 47.8 38 -4.9 23.2
13:55 1033 30.5 862 25.45 8.9 48 37 -5 22.9
14:00 1033 30.5 862 25.45 8.1 46.6 40 -4.6 23.8
14:05 1033 30.5 862 25.45 8.3 46.9 39 -4.8 23.3
14:10 1033 30.5 862 25.45 8.7 47.6 36 -5.5 22.1
14:15 1033 30.5 862 25.45 8.7 47.7 40 -4.2 24.5
14:20 1033 30.5 862 25.45 9.2 48.5 40 -3.8 25.2
14:25 1033 30.5 862 25.45 8.8 47.8 41 -3.7 25.3
14:30 1033 30.5 862 25.45 8.9 48 43 -3 26.7
14:35 1033 30.5 862 25.45 8.9 48.1 41 -3.6 25.5
14:40 1033 30.5 862 25.45 8.8 47.9 40 -4 24.8
14:45 1033 30.5 862 25.45 8.2 46.8 44 -3.4 25.9
14:50 1033 30.5 862 25.45 7.6 45.6 43 -4 24.7
14:55 1033 30.5 862 25.45 7.9 46.2 43 -3.9 24.9
15:00 1033 30.5 862 25.45 8.3 46.9 43 -3.5 25.8
15:05 1033 30.5 862 25.45 9 48.1 42 -3.2 26.3
15:10 1033 30.5 862 25.45 9.1 48.4 41 -3.3 26.1
15:15 1033 30.5 862 25.45 9.3 48.7 39 -3.8 25.2
15:20 1033 30.5 862 25.45 8.1 46.5 43 -3.8 25.1
15:25 1033 30.5 862 25.45 8 46.3 42 -4.3 24.3
15:30 1033 30.5 862 25.45 8.7 47.6 37 -5 22.9
15:35 1033 30.5 862 25.45 8.7 47.7 40 -4.1 24.6
15:40 1033 30.5 862 25.45 8.4 47 39 -4.8 23.4
15:45 1033 30.5 862 25.45 9 48.2 37 -5 23
15:50 1033 30.5 862 25.45 8.9 48.1 35 -5.5 22
15:55 1033 30.5 862 25.45 8 46.4 40 -4.9 23.2
16:00 1033 30.5 862 25.45 8.6 47.5 38 -4.9 23.2
16:05 1033 30.5 862 25.45 9 48.2 37 -5 23.1
16:10 1033 30.5 862 25.45 8.3 47 37 -5.3 22.4
16:15 1033 30.5 862 25.45 8.5 47.3 36 -5.7 21.7
16:20 1033 30.5 862 25.45 8.5 47.4 38 -5.1 22.9
16:25 1033 30.5 862 25.45 9.4 48.9 35 -5.2 22.6
16:30 1033 30.5 862 25.45 9.8 49.7 34 -5.2 22.6
16:35 1033 30.5 862 25.45 10.3 50.6 33 -5.3 22.4
16:40 1033 30.5 862 25.45 10.4 50.7 34 -5 23.1
16:45 1033 30.5 862 25.45 9.5 49 36 -4.7 23.5
16:50 1033 30.5 862 25.45 9.4 48.9 35 -5.4 22.2
16:55 1033 30.5 862 25.45 9.3 48.8 36 -4.9 23.2
17:00 1032 30.47 862 25.45 9.6 49.3 33 -6 21.3
17:05 1032 30.47 862 25.45 9.9 49.7 35 -5 23
17:10 1032 30.47 862 25.45 10 50 32 -5.8 21.5
17:15 1032 30.47 862 25.45 10.7 51.3 31 -5.5 22
17:20 1032 30.47 862 25.45 11.2 52.2 29 -6 21.2
17:25 1032 30.47 861 25.43 10.6 51 31 -5.9 21.4
17:30 1032 30.47 861 25.43 9.8 49.6 32 -6 21.2
17:35 1032 30.47 861 25.43 9.9 49.9 31 -6.5 20.4
17:40 1032 30.47 861 25.43 9.8 49.6 31 -6.4 20.5
17:45 1032 30.47 861 25.43 9.9 49.8 31 -6.5 20.3
17:50 1032 30.47 861 25.43 10 50 32 -6 21.2
17:55 1032 30.47 861 25.43 9.9 49.9 31 -6.5 20.3
18:00 1032 30.47 861 25.43 9.9 49.7 31 -6.6 20.2
18:05 1032 30.47 861 25.43 9.8 49.7 29 -7.3 18.8
18:10 1032 30.47 861 25.43 9.8 49.7 28 -8 17.7
18:15 1032 30.47 861 25.43 9.8 49.7 29 -7.2 19
18:20 1032 30.47 861 25.43 9.7 49.4 30 -7.1 19.3
18:25 1032 30.47 861 25.43 9.6 49.2 31 -6.6 20.1
18:30 1032 30.47 861 25.43 9.2 48.5 33 -6.4 20.6
18:35 1032 30.47 861 25.43 9.2 48.5 31 -6.9 19.6
18:40 1032 30.47 861 25.43 9.2 48.6 31 -6.9 19.6
18:45 1032 30.47 861 25.43 9.1 48.4 31 -7 19.4
18:50 1032 30.47 861 25.43 9.1 48.4 31 -7 19.4
18:55 1032 30.47 861 25.43 9.1 48.3 31 -7 19.4
19:00 1032 30.47 861 25.43 9 48.2 31 -7.1 19.3
19:05 1032 30.47 861 25.43 8.9 48 32 -7 19.4
19:10 1032 30.47 861 25.43 8.8 47.9 31 -7.3 18.9
19:15 1032 30.47 861 25.43 8.8 47.8 32 -7.1 19.2
19:20 1032 30.47 861 25.43 8.7 47.6 33 -6.9 19.7
19:25 1032 30.47 861 25.43 8.6 47.4 33 -6.9 19.6
19:30 1032 30.47 861 25.43 8.4 47.1 33 -6.8 19.7
19:35 1032 30.47 861 25.43 8.1 46.6 35 -6.5 20.3
19:40 1032 30.47 861 25.43 7.8 46.1 38 -5.8 21.6
19:45 1032 30.47 861 25.43 7.6 45.6 42 -4.6 23.8
19:50 1032 30.47 861 25.43 6.9 44.4 47 -3.6 25.6
19:55 1032 30.47 861 25.43 6.2 43.1 51 -3.2 26.3
20:00 1032 30.47 861 25.43 5.8 42.5 53 -3 26.6
20:05 1032 30.47 861 25.43 5.5 42 56 -2.6 27.3
20:10 1032 30.47 861 25.43 5.2 41.4 57 -2.6 27.3
20:15 1032 30.47 861 25.43 4.9 40.8 59 -2.5 27.4
20:20 1032 30.47 861 25.43 4.7 40.4 60 -2.5 27.5
20:25 1032 30.47 861 25.43 4.5 40 61 -2.3 27.8
20:30 1032 30.47 861 25.43 4.2 39.6 63 -2.2 28
20:35 1032 30.47 862 25.45 3.9 39.1 65 -2.1 28.2
20:40 1032 30.47 862 25.45 3.8 38.8 66 -2 28.3
20:45 1032 30.47 862 25.45 3.5 38.3 66 -2.1 28.1
20:50 1032 30.47 862 25.45 3.3 38 67 -2.3 27.9
20:55 1032 30.47 862 25.45 3.1 37.6 67 -2.5 27.6
21:00 1032 30.47 862 25.45 3.1 37.6 66 -2.6 27.3
21:05 1032 30.47 862 25.45 3 37.4 66 -2.8 27
21:10 1032 30.47 862 25.45 2.8 37 65 -3.2 26.3
21:15 1032 30.47 862 25.45 2.8 37 64 -3.4 25.8
21:20 1032 30.47 862 25.45 2.9 37.2 61 -3.9 24.9
21:25 1032 30.47 862 25.45 3.2 37.7 61 -3.7 25.4
21:30 1032 30.47 862 25.45 3.1 37.7 62 -3.4 26
21:35 1033 30.5 862 25.45 2.9 37.3 65 -3 26.6
21:40 1032 30.47 862 25.45 2.9 37.2 64 -3.2 26.3
21:45 1032 30.47 862 25.45 2.7 36.8 63 -3.6 25.5
21:50 1033 30.5 862 25.45 2.7 36.8 64 -3.4 25.8
21:55 1033 30.5 862 25.45 2.5 36.4 65 -3.5 25.7
22:00 1033 30.5 862 25.45 2.5 36.5 65 -3.3 26
22:05 1033 30.5 862 25.45 2.3 36.2 67 -3.3 26.1
22:10 1033 30.5 862 25.45 2 35.7 66 -3.6 25.4
22:15 1033 30.5 862 25.45 2.1 35.8 65 -3.9 25
22:20 1033 30.5 862 25.45 2.1 35.8 64 -4 24.8
22:25 1033 30.5 862 25.45 2.2 35.9 61 -4.5 23.9
22:30 1033 30.5 862 25.45 2.3 36.2 63 -4.1 24.7
22:35 1033 30.5 862 25.45 2.2 35.9 65 -3.8 25.2
22:40 1033 30.5 862 25.45 1.9 35.5 65 -3.9 25.1
22:45 1033 30.5 862 25.45 1.7 35.1 64 -4.3 24.3
22:50 1033 30.5 862 25.45 1.8 35.2 65 -4.2 24.5
22:55 1033 30.5 862 25.45 1.8 35.3 66 -3.9 24.9
23:00 1033 30.5 862 25.45 1.5 34.8 67 -4 24.8
23:05 1033 30.5 862 25.45 1.3 34.4 68 -4 24.8
23:10 1033 30.5 862 25.45 1 33.8 68 -4.1 24.5
23:15 1033 30.5 862 25.45 0.9 33.6 68 -4.3 24.3
23:20 1033 30.5 862 25.45 1.2 34.1 65 -4.7 23.5
23:25 1033 30.5 862 25.45 1.2 34.2 65 -4.7 23.5
23:30 1033 30.5 862 25.45 1.1 33.9 67 -4.5 23.9
23:35 1033 30.5 862 25.45 1.2 34.1 62 -5.4 22.3
23:40 1033 30.5 862 25.45 1.5 34.8 64 -4.6 23.7
23:45 1033 30.5 862 25.45 1.2 34.1 63 -5.1 22.9
23:50 1033 30.5 862 25.45 1.2 34.1 66 -4.5 23.9
23:55 1033 30.5 862 25.45 0.8 33.5 62 -5.7 21.7
24:00 1033 30.5 862 25.45 1.5 34.7 61 -5.2 22.7